sensor_id;sensor_type;location;lat;lon;timestamp;temperature;humidity
21662;DHT22;10992;48.170;8.596;2024-03-08T00:02:15;-1.20;99.90
21662;DHT22;10992;48.170;8.596;2024-03-08T00:04:42;-1.20;99.90
21662;DHT22;10992;48.170;8.596;2024-03-08T00:07:09;-1.10;99.90
21662;DHT22;10992;48.170;8.596;2024-03-08T00:09:35;-1.10;99.90
21662;DHT22;10992;48.170;8.596;2024-03-08T00:12:03;-1.10;99.90
21662;DHT22;10992;48.170;8.596;2024-03-08T00:14:30;-1.10;99.90
21662;DHT22;10992;48.170;8.596;2024-03-08T00:16:57;-1.30;99.90
21662;DHT22;10992;48.170;8.596;2024-03-08T00:19:24;-1.40;99.90
21662;DHT22;10992;48.170;8.596;2024-03-08T00:21:51;-1.40;99.90
21662;DHT22;10992;48.170;8.596;2024-03-08T00:24:18;-1.50;99.90
21662;DHT22;10992;48.170;8.596;2024-03-08T00:26:45;-1.60;99.90
21662;DHT22;10992;48.170;8.596;2024-03-08T00:29:12;-1.60;99.90
21662;DHT22;10992;48.170;8.596;2024-03-08T00:31:39;-1.70;99.90
21662;DHT22;10992;48.170;8.596;2024-03-08T00:34:06;-1.70;99.90
21662;DHT22;10992;48.170;8.596;2024-03-08T00:36:33;-1.80;99.90
21662;DHT22;10992;48.170;8.596;2024-03-08T00:39:01;-1.80;99.90
21662;DHT22;10992;48.170;8.596;2024-03-08T00:41:29;-1.80;99.90
21662;DHT22;10992;48.170;8.596;2024-03-08T00:43:56;-1.90;99.90
21662;DHT22;10992;48.170;8.596;2024-03-08T00:46:22;-1.90;99.90
21662;DHT22;10992;48.170;8.596;2024-03-08T00:48:49;-1.90;99.90
21662;DHT22;10992;48.170;8.596;2024-03-08T00:51:16;-1.80;99.90
21662;DHT22;10992;48.170;8.596;2024-03-08T00:53:44;-1.70;99.90
21662;DHT22;10992;48.170;8.596;2024-03-08T00:56:10;-1.70;99.90
21662;DHT22;10992;48.170;8.596;2024-03-08T00:58:37;-1.80;99.90
21662;DHT22;10992;48.170;8.596;2024-03-08T01:01:04;-1.90;99.90
21662;DHT22;10992;48.170;8.596;2024-03-08T01:03:31;-1.90;99.90
21662;DHT22;10992;48.170;8.596;2024-03-08T01:05:58;-2.00;99.90
21662;DHT22;10992;48.170;8.596;2024-03-08T01:08:28;-2.00;99.90
21662;DHT22;10992;48.170;8.596;2024-03-08T01:10:55;-1.90;99.90
21662;DHT22;10992;48.170;8.596;2024-03-08T01:13:22;-2.00;99.90
21662;DHT22;10992;48.170;8.596;2024-03-08T01:15:49;-2.10;99.90
21662;DHT22;10992;48.170;8.596;2024-03-08T01:18:16;-2.00;99.90
21662;DHT22;10992;48.170;8.596;2024-03-08T01:20:43;-2.00;99.90
21662;DHT22;10992;48.170;8.596;2024-03-08T01:23:10;-2.00;99.90
21662;DHT22;10992;48.170;8.596;2024-03-08T01:25:37;-2.00;99.90
21662;DHT22;10992;48.170;8.596;2024-03-08T01:28:04;-2.10;99.90
21662;DHT22;10992;48.170;8.596;2024-03-08T01:30:31;-2.20;99.90
21662;DHT22;10992;48.170;8.596;2024-03-08T01:32:59;-2.30;99.90
21662;DHT22;10992;48.170;8.596;2024-03-08T01:35:26;-2.40;99.90
21662;DHT22;10992;48.170;8.596;2024-03-08T01:37:54;-2.20;99.90
21662;DHT22;10992;48.170;8.596;2024-03-08T01:40:21;-2.30;99.90
21662;DHT22;10992;48.170;8.596;2024-03-08T01:42:48;-2.30;99.90
21662;DHT22;10992;48.170;8.596;2024-03-08T01:45:14;-2.30;99.90
21662;DHT22;10992;48.170;8.596;2024-03-08T01:47:43;-2.30;99.90
21662;DHT22;10992;48.170;8.596;2024-03-08T01:50:10;-2.30;99.90
21662;DHT22;10992;48.170;8.596;2024-03-08T01:52:37;-2.30;99.90
21662;DHT22;10992;48.170;8.596;2024-03-08T01:55:05;-2.20;99.90
21662;DHT22;10992;48.170;8.596;2024-03-08T01:57:34;-2.20;99.90
21662;DHT22;10992;48.170;8.596;2024-03-08T02:00:02;-2.20;99.90
21662;DHT22;10992;48.170;8.596;2024-03-08T02:02:33;-2.20;99.90
21662;DHT22;10992;48.170;8.596;2024-03-08T02:05:01;-2.10;99.90
21662;DHT22;10992;48.170;8.596;2024-03-08T02:07:29;-2.20;99.90
21662;DHT22;10992;48.170;8.596;2024-03-08T02:09:56;-2.10;99.90
21662;DHT22;10992;48.170;8.596;2024-03-08T02:12:24;-2.10;99.90
21662;DHT22;10992;48.170;8.596;2024-03-08T02:14:50;-2.00;99.90
21662;DHT22;10992;48.170;8.596;2024-03-08T02:17:17;-2.00;99.90
21662;DHT22;10992;48.170;8.596;2024-03-08T02:19:44;-1.90;99.90
21662;DHT22;10992;48.170;8.596;2024-03-08T02:22:11;-1.80;99.90
21662;DHT22;10992;48.170;8.596;2024-03-08T02:24:38;-1.60;99.90
21662;DHT22;10992;48.170;8.596;2024-03-08T02:27:05;-1.40;99.90
21662;DHT22;10992;48.170;8.596;2024-03-08T02:29:33;-1.40;99.90
21662;DHT22;10992;48.170;8.596;2024-03-08T02:32:01;-1.30;99.90
21662;DHT22;10992;48.170;8.596;2024-03-08T02:34:27;-1.20;99.90
21662;DHT22;10992;48.170;8.596;2024-03-08T02:36:54;-1.10;99.90
21662;DHT22;10992;48.170;8.596;2024-03-08T02:39:23;-0.90;99.90
21662;DHT22;10992;48.170;8.596;2024-03-08T02:41:50;-0.80;99.90
21662;DHT22;10992;48.170;8.596;2024-03-08T02:44:17;-0.60;99.90
21662;DHT22;10992;48.170;8.596;2024-03-08T02:46:44;-0.50;99.90
21662;DHT22;10992;48.170;8.596;2024-03-08T02:49:11;-0.40;99.90
21662;DHT22;10992;48.170;8.596;2024-03-08T02:51:38;-0.40;99.90
21662;DHT22;10992;48.170;8.596;2024-03-08T02:54:05;-0.40;99.90
21662;DHT22;10992;48.170;8.596;2024-03-08T02:56:32;-0.40;99.90
21662;DHT22;10992;48.170;8.596;2024-03-08T02:59:01;-0.20;99.90
21662;DHT22;10992;48.170;8.596;2024-03-08T03:01:29;-0.20;99.90
21662;DHT22;10992;48.170;8.596;2024-03-08T03:03:56;-0.20;99.90
21662;DHT22;10992;48.170;8.596;2024-03-08T03:06:23;-0.10;99.90
21662;DHT22;10992;48.170;8.596;2024-03-08T03:08:50;-0.10;99.90
21662;DHT22;10992;48.170;8.596;2024-03-08T03:11:18;0.00;99.90
21662;DHT22;10992;48.170;8.596;2024-03-08T03:13:45;0.00;99.90
21662;DHT22;10992;48.170;8.596;2024-03-08T03:16:18;0.00;99.90
21662;DHT22;10992;48.170;8.596;2024-03-08T03:18:46;0.00;99.90
21662;DHT22;10992;48.170;8.596;2024-03-08T03:21:14;0.00;99.90
21662;DHT22;10992;48.170;8.596;2024-03-08T03:23:41;0.00;99.90
21662;DHT22;10992;48.170;8.596;2024-03-08T03:26:12;-0.10;99.90
21662;DHT22;10992;48.170;8.596;2024-03-08T03:28:39;0.00;99.90
21662;DHT22;10992;48.170;8.596;2024-03-08T03:31:07;-0.10;99.90
21662;DHT22;10992;48.170;8.596;2024-03-08T03:33:36;-0.20;99.90
21662;DHT22;10992;48.170;8.596;2024-03-08T03:36:04;-0.10;99.90
21662;DHT22;10992;48.170;8.596;2024-03-08T03:38:32;-0.10;99.90
21662;DHT22;10992;48.170;8.596;2024-03-08T03:41:01;-0.10;99.90
21662;DHT22;10992;48.170;8.596;2024-03-08T03:43:37;0.00;99.90
21662;DHT22;10992;48.170;8.596;2024-03-08T03:46:06;0.00;99.90
21662;DHT22;10992;48.170;8.596;2024-03-08T03:48:34;0.00;99.90
21662;DHT22;10992;48.170;8.596;2024-03-08T03:51:01;0.00;99.90
21662;DHT22;10992;48.170;8.596;2024-03-08T03:53:27;-0.10;99.90
21662;DHT22;10992;48.170;8.596;2024-03-08T03:55:54;-0.10;99.90
21662;DHT22;10992;48.170;8.596;2024-03-08T03:58:21;-0.10;99.90
21662;DHT22;10992;48.170;8.596;2024-03-08T04:00:49;-0.10;99.90
21662;DHT22;10992;48.170;8.596;2024-03-08T04:03:16;0.00;99.90
21662;DHT22;10992;48.170;8.596;2024-03-08T04:05:43;0.00;99.90
21662;DHT22;10992;48.170;8.596;2024-03-08T04:08:10;0.00;99.90
21662;DHT22;10992;48.170;8.596;2024-03-08T04:10:37;0.00;99.90
21662;DHT22;10992;48.170;8.596;2024-03-08T04:13:04;0.00;99.90
21662;DHT22;10992;48.170;8.596;2024-03-08T04:15:31;0.00;99.90
21662;DHT22;10992;48.170;8.596;2024-03-08T04:17:58;-0.10;99.90
21662;DHT22;10992;48.170;8.596;2024-03-08T04:20:27;-0.10;99.90
21662;DHT22;10992;48.170;8.596;2024-03-08T04:22:54;-0.10;99.90
21662;DHT22;10992;48.170;8.596;2024-03-08T04:25:21;-0.10;99.90
21662;DHT22;10992;48.170;8.596;2024-03-08T04:27:48;-0.10;99.90
21662;DHT22;10992;48.170;8.596;2024-03-08T04:30:16;-0.20;99.90
21662;DHT22;10992;48.170;8.596;2024-03-08T04:32:44;-0.10;99.90
21662;DHT22;10992;48.170;8.596;2024-03-08T04:35:11;-0.10;99.90
21662;DHT22;10992;48.170;8.596;2024-03-08T04:37:40;-0.10;99.90
21662;DHT22;10992;48.170;8.596;2024-03-08T04:40:07;0.00;99.90
21662;DHT22;10992;48.170;8.596;2024-03-08T04:42:35;-0.10;99.90
21662;DHT22;10992;48.170;8.596;2024-03-08T04:45:03;-0.10;99.90
21662;DHT22;10992;48.170;8.596;2024-03-08T04:47:31;0.00;99.90
21662;DHT22;10992;48.170;8.596;2024-03-08T04:49:57;0.00;99.90
21662;DHT22;10992;48.170;8.596;2024-03-08T04:52:25;0.00;99.90
21662;DHT22;10992;48.170;8.596;2024-03-08T04:54:52;-0.10;99.90
21662;DHT22;10992;48.170;8.596;2024-03-08T04:57:19;-0.10;99.90
21662;DHT22;10992;48.170;8.596;2024-03-08T04:59:46;-0.10;99.90
21662;DHT22;10992;48.170;8.596;2024-03-08T05:02:14;-0.10;99.90
21662;DHT22;10992;48.170;8.596;2024-03-08T05:04:40;-0.10;99.90
21662;DHT22;10992;48.170;8.596;2024-03-08T05:07:09;-0.10;99.90
21662;DHT22;10992;48.170;8.596;2024-03-08T05:09:36;-0.10;99.90
21662;DHT22;10992;48.170;8.596;2024-03-08T05:12:05;-0.10;99.90
21662;DHT22;10992;48.170;8.596;2024-03-08T05:14:33;0.00;99.90
21662;DHT22;10992;48.170;8.596;2024-03-08T05:17:01;0.00;99.90
21662;DHT22;10992;48.170;8.596;2024-03-08T05:19:28;0.10;99.90
21662;DHT22;10992;48.170;8.596;2024-03-08T05:22:00;0.10;99.90
21662;DHT22;10992;48.170;8.596;2024-03-08T05:24:27;0.10;99.90
21662;DHT22;10992;48.170;8.596;2024-03-08T05:26:54;0.10;99.90
21662;DHT22;10992;48.170;8.596;2024-03-08T05:29:21;0.00;99.90
21662;DHT22;10992;48.170;8.596;2024-03-08T05:31:50;0.10;99.90
21662;DHT22;10992;48.170;8.596;2024-03-08T05:34:19;0.10;99.90
21662;DHT22;10992;48.170;8.596;2024-03-08T05:36:46;0.20;99.90
21662;DHT22;10992;48.170;8.596;2024-03-08T05:39:13;0.20;99.90
21662;DHT22;10992;48.170;8.596;2024-03-08T05:41:44;0.20;99.90
21662;DHT22;10992;48.170;8.596;2024-03-08T05:44:13;0.20;99.90
21662;DHT22;10992;48.170;8.596;2024-03-08T05:46:40;0.20;99.90
21662;DHT22;10992;48.170;8.596;2024-03-08T05:49:07;0.20;99.90
21662;DHT22;10992;48.170;8.596;2024-03-08T05:51:38;0.20;99.90
21662;DHT22;10992;48.170;8.596;2024-03-08T05:54:10;0.30;99.90
21662;DHT22;10992;48.170;8.596;2024-03-08T05:56:40;0.30;99.90
21662;DHT22;10992;48.170;8.596;2024-03-08T05:59:10;0.20;99.90
21662;DHT22;10992;48.170;8.596;2024-03-08T06:01:37;0.10;99.90
21662;DHT22;10992;48.170;8.596;2024-03-08T06:04:05;0.10;99.90
21662;DHT22;10992;48.170;8.596;2024-03-08T06:06:31;0.00;99.90
21662;DHT22;10992;48.170;8.596;2024-03-08T06:09:01;0.00;99.90
21662;DHT22;10992;48.170;8.596;2024-03-08T06:11:35;0.10;99.90
21662;DHT22;10992;48.170;8.596;2024-03-08T06:14:04;0.10;99.90
21662;DHT22;10992;48.170;8.596;2024-03-08T06:16:33;0.00;99.90
21662;DHT22;10992;48.170;8.596;2024-03-08T06:19:00;0.00;99.90
21662;DHT22;10992;48.170;8.596;2024-03-08T06:21:29;0.00;99.90
21662;DHT22;10992;48.170;8.596;2024-03-08T06:23:56;0.00;99.90
21662;DHT22;10992;48.170;8.596;2024-03-08T06:26:25;0.10;99.90
21662;DHT22;10992;48.170;8.596;2024-03-08T06:28:56;0.10;99.90
21662;DHT22;10992;48.170;8.596;2024-03-08T06:31:24;0.10;99.90
21662;DHT22;10992;48.170;8.596;2024-03-08T06:33:51;0.00;99.90
21662;DHT22;10992;48.170;8.596;2024-03-08T06:36:18;0.00;99.90
21662;DHT22;10992;48.170;8.596;2024-03-08T06:38:46;-0.10;99.90
21662;DHT22;10992;48.170;8.596;2024-03-08T06:41:13;-0.10;99.90
21662;DHT22;10992;48.170;8.596;2024-03-08T06:43:47;-0.10;99.90
21662;DHT22;10992;48.170;8.596;2024-03-08T06:46:15;-0.10;99.90
21662;DHT22;10992;48.170;8.596;2024-03-08T06:48:42;0.00;99.90
21662;DHT22;10992;48.170;8.596;2024-03-08T06:51:09;0.00;99.90
21662;DHT22;10992;48.170;8.596;2024-03-08T06:53:37;0.10;99.90
21662;DHT22;10992;48.170;8.596;2024-03-08T06:56:06;0.00;99.90
21662;DHT22;10992;48.170;8.596;2024-03-08T06:58:34;0.10;99.90
21662;DHT22;10992;48.170;8.596;2024-03-08T07:01:01;0.10;99.90
21662;DHT22;10992;48.170;8.596;2024-03-08T07:03:31;0.10;99.90
21662;DHT22;10992;48.170;8.596;2024-03-08T07:05:59;0.10;99.90
21662;DHT22;10992;48.170;8.596;2024-03-08T07:08:28;0.10;99.90
21662;DHT22;10992;48.170;8.596;2024-03-08T07:10:55;0.10;99.90
21662;DHT22;10992;48.170;8.596;2024-03-08T07:13:25;0.00;99.90
21662;DHT22;10992;48.170;8.596;2024-03-08T07:15:52;0.00;99.90
21662;DHT22;10992;48.170;8.596;2024-03-08T07:18:19;0.00;99.90
21662;DHT22;10992;48.170;8.596;2024-03-08T07:20:46;-0.10;99.90
21662;DHT22;10992;48.170;8.596;2024-03-08T07:23:13;-0.10;99.90
21662;DHT22;10992;48.170;8.596;2024-03-08T07:26:00;0.00;99.90
21662;DHT22;10992;48.170;8.596;2024-03-08T07:28:28;0.00;99.90
21662;DHT22;10992;48.170;8.596;2024-03-08T07:31:00;0.00;99.90
21662;DHT22;10992;48.170;8.596;2024-03-08T07:33:44;0.00;99.90
21662;DHT22;10992;48.170;8.596;2024-03-08T07:36:11;0.00;99.90
21662;DHT22;10992;48.170;8.596;2024-03-08T07:38:38;0.20;99.90
21662;DHT22;10992;48.170;8.596;2024-03-08T07:41:06;0.30;99.90
21662;DHT22;10992;48.170;8.596;2024-03-08T07:43:32;0.40;99.90
21662;DHT22;10992;48.170;8.596;2024-03-08T07:46:00;0.60;99.90
21662;DHT22;10992;48.170;8.596;2024-03-08T07:48:27;0.50;99.90
21662;DHT22;10992;48.170;8.596;2024-03-08T07:50:54;0.50;99.90
21662;DHT22;10992;48.170;8.596;2024-03-08T07:53:22;0.60;99.90
21662;DHT22;10992;48.170;8.596;2024-03-08T07:55:51;0.70;99.90
21662;DHT22;10992;48.170;8.596;2024-03-08T07:58:19;0.70;99.90
21662;DHT22;10992;48.170;8.596;2024-03-08T08:00:46;0.80;99.90
21662;DHT22;10992;48.170;8.596;2024-03-08T08:03:13;0.90;99.90
21662;DHT22;10992;48.170;8.596;2024-03-08T08:05:40;1.00;99.90
21662;DHT22;10992;48.170;8.596;2024-03-08T08:08:10;0.90;99.90
21662;DHT22;10992;48.170;8.596;2024-03-08T08:10:38;0.90;99.90
21662;DHT22;10992;48.170;8.596;2024-03-08T08:13:05;1.00;99.90
21662;DHT22;10992;48.170;8.596;2024-03-08T08:15:32;1.10;99.90
21662;DHT22;10992;48.170;8.596;2024-03-08T08:18:03;1.20;99.90
21662;DHT22;10992;48.170;8.596;2024-03-08T08:20:33;1.20;99.90
21662;DHT22;10992;48.170;8.596;2024-03-08T08:23:00;1.10;99.90
21662;DHT22;10992;48.170;8.596;2024-03-08T08:25:27;1.20;99.90
21662;DHT22;10992;48.170;8.596;2024-03-08T08:27:54;1.10;99.90
21662;DHT22;10992;48.170;8.596;2024-03-08T08:30:21;1.20;99.90
21662;DHT22;10992;48.170;8.596;2024-03-08T08:32:48;1.30;99.90
21662;DHT22;10992;48.170;8.596;2024-03-08T08:35:16;1.30;99.90
21662;DHT22;10992;48.170;8.596;2024-03-08T08:37:43;1.10;99.90
21662;DHT22;10992;48.170;8.596;2024-03-08T08:40:11;1.00;99.90
21662;DHT22;10992;48.170;8.596;2024-03-08T08:42:42;1.00;99.90
21662;DHT22;10992;48.170;8.596;2024-03-08T08:45:09;0.90;99.90
21662;DHT22;10992;48.170;8.596;2024-03-08T08:47:46;0.90;99.90
21662;DHT22;10992;48.170;8.596;2024-03-08T08:50:14;1.10;99.90
21662;DHT22;10992;48.170;8.596;2024-03-08T08:52:41;1.10;99.90
21662;DHT22;10992;48.170;8.596;2024-03-08T08:55:10;1.30;99.90
21662;DHT22;10992;48.170;8.596;2024-03-08T08:57:42;1.50;99.90
21662;DHT22;10992;48.170;8.596;2024-03-08T09:00:12;1.60;99.90
21662;DHT22;10992;48.170;8.596;2024-03-08T09:02:42;1.60;99.90
21662;DHT22;10992;48.170;8.596;2024-03-08T09:05:09;1.40;99.90
21662;DHT22;10992;48.170;8.596;2024-03-08T09:07:37;1.20;99.90
21662;DHT22;10992;48.170;8.596;2024-03-08T09:10:04;1.50;99.90
21662;DHT22;10992;48.170;8.596;2024-03-08T09:12:34;1.40;99.90
21662;DHT22;10992;48.170;8.596;2024-03-08T09:15:01;1.60;99.90
21662;DHT22;10992;48.170;8.596;2024-03-08T09:17:28;1.50;99.90
21662;DHT22;10992;48.170;8.596;2024-03-08T09:19:55;1.40;99.90
21662;DHT22;10992;48.170;8.596;2024-03-08T09:22:23;1.80;99.90
21662;DHT22;10992;48.170;8.596;2024-03-08T09:24:50;1.90;99.90
21662;DHT22;10992;48.170;8.596;2024-03-08T09:27:17;2.10;99.90
21662;DHT22;10992;48.170;8.596;2024-03-08T09:29:44;2.20;99.90
21662;DHT22;10992;48.170;8.596;2024-03-08T09:32:11;2.70;99.90
21662;DHT22;10992;48.170;8.596;2024-03-08T09:34:38;2.60;99.90
21662;DHT22;10992;48.170;8.596;2024-03-08T09:37:06;2.70;99.90
21662;DHT22;10992;48.170;8.596;2024-03-08T09:39:33;3.00;99.90
21662;DHT22;10992;48.170;8.596;2024-03-08T09:42:01;2.70;99.90
21662;DHT22;10992;48.170;8.596;2024-03-08T09:44:28;2.40;99.90
21662;DHT22;10992;48.170;8.596;2024-03-08T09:46:55;2.40;99.90
21662;DHT22;10992;48.170;8.596;2024-03-08T09:49:25;1.90;99.90
21662;DHT22;10992;48.170;8.596;2024-03-08T09:51:52;1.70;99.90
21662;DHT22;10992;48.170;8.596;2024-03-08T09:54:20;1.90;99.90
21662;DHT22;10992;48.170;8.596;2024-03-08T09:56:51;2.40;99.90
21662;DHT22;10992;48.170;8.596;2024-03-08T09:59:19;2.70;99.90
21662;DHT22;10992;48.170;8.596;2024-03-08T10:02:14;3.30;99.90
21662;DHT22;10992;48.170;8.596;2024-03-08T10:04:42;3.40;99.90
21662;DHT22;10992;48.170;8.596;2024-03-08T10:07:09;3.20;99.90
21662;DHT22;10992;48.170;8.596;2024-03-08T10:09:36;3.40;99.90
21662;DHT22;10992;48.170;8.596;2024-03-08T10:12:04;4.00;99.90
21662;DHT22;10992;48.170;8.596;2024-03-08T10:14:32;4.00;99.90
21662;DHT22;10992;48.170;8.596;2024-03-08T10:16:59;4.00;99.90
21662;DHT22;10992;48.170;8.596;2024-03-08T10:19:28;4.30;99.90
21662;DHT22;10992;48.170;8.596;2024-03-08T10:21:58;4.10;99.90
21662;DHT22;10992;48.170;8.596;2024-03-08T10:24:26;4.40;99.90
21662;DHT22;10992;48.170;8.596;2024-03-08T10:26:58;4.40;99.90
21662;DHT22;10992;48.170;8.596;2024-03-08T10:29:25;4.30;99.90
21662;DHT22;10992;48.170;8.596;2024-03-08T10:31:52;4.70;99.90
21662;DHT22;10992;48.170;8.596;2024-03-08T10:34:19;5.50;99.90
21662;DHT22;10992;48.170;8.596;2024-03-08T10:36:50;6.90;99.90
21662;DHT22;10992;48.170;8.596;2024-03-08T10:39:23;7.50;99.90
21662;DHT22;10992;48.170;8.596;2024-03-08T10:41:58;7.10;99.90
21662;DHT22;10992;48.170;8.596;2024-03-08T10:49:38;6.40;99.90
21662;DHT22;10992;48.170;8.596;2024-03-08T10:52:06;6.70;99.90
21662;DHT22;10992;48.170;8.596;2024-03-08T10:54:37;7.00;99.90
21662;DHT22;10992;48.170;8.596;2024-03-08T10:57:12;7.00;99.90
21662;DHT22;10992;48.170;8.596;2024-03-08T10:59:39;8.40;99.90
21662;DHT22;10992;48.170;8.596;2024-03-08T11:02:08;8.30;99.90
21662;DHT22;10992;48.170;8.596;2024-03-08T11:04:37;8.40;99.90
21662;DHT22;10992;48.170;8.596;2024-03-08T11:07:04;8.80;99.90
21662;DHT22;10992;48.170;8.596;2024-03-08T11:09:37;8.50;99.90
21662;DHT22;10992;48.170;8.596;2024-03-08T11:12:27;9.30;99.90
21662;DHT22;10992;48.170;8.596;2024-03-08T11:15:01;9.70;99.90
21662;DHT22;10992;48.170;8.596;2024-03-08T11:19:59;10.20;99.90
21662;DHT22;10992;48.170;8.596;2024-03-08T11:22:31;10.40;99.90
21662;DHT22;10992;48.170;8.596;2024-03-08T11:25:04;10.40;99.90
21662;DHT22;10992;48.170;8.596;2024-03-08T11:27:37;10.20;99.90
21662;DHT22;10992;48.170;8.596;2024-03-08T11:30:08;10.10;99.90
21662;DHT22;10992;48.170;8.596;2024-03-08T11:32:46;10.20;99.90
21662;DHT22;10992;48.170;8.596;2024-03-08T11:35:22;10.90;99.90
21662;DHT22;10992;48.170;8.596;2024-03-08T11:37:50;10.50;99.90
21662;DHT22;10992;48.170;8.596;2024-03-08T11:40:17;11.30;99.90
21662;DHT22;10992;48.170;8.596;2024-03-08T11:42:49;10.60;99.90
21662;DHT22;10992;48.170;8.596;2024-03-08T11:45:19;10.40;99.90
21662;DHT22;10992;48.170;8.596;2024-03-08T11:47:48;11.00;99.90
21662;DHT22;10992;48.170;8.596;2024-03-08T11:50:17;11.10;99.90
21662;DHT22;10992;48.170;8.596;2024-03-08T11:52:46;10.60;99.90
21662;DHT22;10992;48.170;8.596;2024-03-08T11:55:14;10.60;99.90
21662;DHT22;10992;48.170;8.596;2024-03-08T11:57:41;10.30;99.90
21662;DHT22;10992;48.170;8.596;2024-03-08T12:00:16;10.90;99.90
21662;DHT22;10992;48.170;8.596;2024-03-08T12:03:06;12.00;99.90
21662;DHT22;10992;48.170;8.596;2024-03-08T12:05:34;11.90;99.90
21662;DHT22;10992;48.170;8.596;2024-03-08T12:08:04;12.20;99.90
21662;DHT22;10992;48.170;8.596;2024-03-08T12:10:40;12.30;99.90
21662;DHT22;10992;48.170;8.596;2024-03-08T12:13:07;11.50;99.90
21662;DHT22;10992;48.170;8.596;2024-03-08T12:15:39;11.70;99.90
21662;DHT22;10992;48.170;8.596;2024-03-08T12:18:07;12.40;99.90
21662;DHT22;10992;48.170;8.596;2024-03-08T12:20:37;11.90;99.90
21662;DHT22;10992;48.170;8.596;2024-03-08T12:23:05;11.70;99.90
21662;DHT22;10992;48.170;8.596;2024-03-08T12:25:33;12.40;99.90
21662;DHT22;10992;48.170;8.596;2024-03-08T12:28:10;12.40;99.90
21662;DHT22;10992;48.170;8.596;2024-03-08T12:30:58;12.50;99.90
21662;DHT22;10992;48.170;8.596;2024-03-08T12:33:26;12.00;99.90
21662;DHT22;10992;48.170;8.596;2024-03-08T12:35:55;12.30;99.90
21662;DHT22;10992;48.170;8.596;2024-03-08T12:38:23;12.40;99.90
21662;DHT22;10992;48.170;8.596;2024-03-08T12:40:58;12.40;99.90
21662;DHT22;10992;48.170;8.596;2024-03-08T12:43:26;12.70;99.90
21662;DHT22;10992;48.170;8.596;2024-03-08T12:45:58;12.90;99.90
21662;DHT22;10992;48.170;8.596;2024-03-08T12:48:25;12.90;99.90
21662;DHT22;10992;48.170;8.596;2024-03-08T12:50:52;12.70;99.90
21662;DHT22;10992;48.170;8.596;2024-03-08T12:53:24;12.20;99.90
21662;DHT22;10992;48.170;8.596;2024-03-08T12:55:52;11.90;99.90
21662;DHT22;10992;48.170;8.596;2024-03-08T12:58:19;11.80;99.90
21662;DHT22;10992;48.170;8.596;2024-03-08T13:00:47;12.10;99.90
21662;DHT22;10992;48.170;8.596;2024-03-08T13:03:17;12.20;99.90
21662;DHT22;10992;48.170;8.596;2024-03-08T13:05:46;12.60;99.90
21662;DHT22;10992;48.170;8.596;2024-03-08T13:08:14;12.50;99.90
21662;DHT22;10992;48.170;8.596;2024-03-08T13:10:42;12.60;99.90
21662;DHT22;10992;48.170;8.596;2024-03-08T13:13:11;12.10;99.90
21662;DHT22;10992;48.170;8.596;2024-03-08T13:15:42;12.20;99.90
21662;DHT22;10992;48.170;8.596;2024-03-08T13:18:09;12.70;99.90
21662;DHT22;10992;48.170;8.596;2024-03-08T13:20:37;12.60;99.90
21662;DHT22;10992;48.170;8.596;2024-03-08T13:23:13;12.50;99.90
21662;DHT22;10992;48.170;8.596;2024-03-08T13:25:40;12.60;99.90
21662;DHT22;10992;48.170;8.596;2024-03-08T13:28:08;12.90;99.90
21662;DHT22;10992;48.170;8.596;2024-03-08T13:30:36;12.50;99.90
21662;DHT22;10992;48.170;8.596;2024-03-08T13:33:03;13.10;99.90
21662;DHT22;10992;48.170;8.596;2024-03-08T13:35:34;13.80;99.90
21662;DHT22;10992;48.170;8.596;2024-03-08T13:38:01;13.00;99.90
21662;DHT22;10992;48.170;8.596;2024-03-08T13:40:32;13.70;99.90
21662;DHT22;10992;48.170;8.596;2024-03-08T13:42:59;14.00;99.90
21662;DHT22;10992;48.170;8.596;2024-03-08T13:45:27;13.80;99.90
21662;DHT22;10992;48.170;8.596;2024-03-08T13:47:55;14.30;99.90
21662;DHT22;10992;48.170;8.596;2024-03-08T13:50:22;14.30;99.90
21662;DHT22;10992;48.170;8.596;2024-03-08T13:52:50;13.90;99.90
21662;DHT22;10992;48.170;8.596;2024-03-08T13:55:24;12.80;99.90
21662;DHT22;10992;48.170;8.596;2024-03-08T13:57:54;12.40;99.90
21662;DHT22;10992;48.170;8.596;2024-03-08T14:00:24;12.90;99.90
21662;DHT22;10992;48.170;8.596;2024-03-08T14:02:54;13.10;99.90
21662;DHT22;10992;48.170;8.596;2024-03-08T14:05:21;13.30;99.90
21662;DHT22;10992;48.170;8.596;2024-03-08T14:07:48;12.50;99.90
21662;DHT22;10992;48.170;8.596;2024-03-08T14:10:17;12.80;99.90
21662;DHT22;10992;48.170;8.596;2024-03-08T14:12:48;13.10;99.90
21662;DHT22;10992;48.170;8.596;2024-03-08T14:15:17;13.10;99.90
21662;DHT22;10992;48.170;8.596;2024-03-08T14:17:45;13.50;99.90
21662;DHT22;10992;48.170;8.596;2024-03-08T14:20:18;13.10;99.90
21662;DHT22;10992;48.170;8.596;2024-03-08T14:22:45;13.30;99.90
21662;DHT22;10992;48.170;8.596;2024-03-08T14:25:12;13.20;99.90
21662;DHT22;10992;48.170;8.596;2024-03-08T14:27:45;13.40;99.90
21662;DHT22;10992;48.170;8.596;2024-03-08T14:30:13;13.00;99.90
21662;DHT22;10992;48.170;8.596;2024-03-08T14:32:40;13.20;99.90
21662;DHT22;10992;48.170;8.596;2024-03-08T14:35:10;13.00;99.90
21662;DHT22;10992;48.170;8.596;2024-03-08T14:37:38;13.10;99.90
21662;DHT22;10992;48.170;8.596;2024-03-08T14:40:05;12.90;99.90
21662;DHT22;10992;48.170;8.596;2024-03-08T14:42:33;12.90;99.90
21662;DHT22;10992;48.170;8.596;2024-03-08T14:45:00;13.00;99.90
21662;DHT22;10992;48.170;8.596;2024-03-08T14:47:27;13.00;99.90
21662;DHT22;10992;48.170;8.596;2024-03-08T14:49:55;13.00;99.90
21662;DHT22;10992;48.170;8.596;2024-03-08T14:52:22;12.80;99.90
21662;DHT22;10992;48.170;8.596;2024-03-08T14:54:56;12.90;99.90
21662;DHT22;10992;48.170;8.596;2024-03-08T14:57:24;13.10;99.90
21662;DHT22;10992;48.170;8.596;2024-03-08T14:59:50;12.90;99.90
21662;DHT22;10992;48.170;8.596;2024-03-08T15:02:17;12.70;99.90
21662;DHT22;10992;48.170;8.596;2024-03-08T15:04:49;12.90;99.90
21662;DHT22;10992;48.170;8.596;2024-03-08T15:07:25;12.50;99.90
21662;DHT22;10992;48.170;8.596;2024-03-08T15:09:53;12.30;99.90
21662;DHT22;10992;48.170;8.596;2024-03-08T15:12:22;12.00;99.90
21662;DHT22;10992;48.170;8.596;2024-03-08T15:14:53;11.80;99.90
21662;DHT22;10992;48.170;8.596;2024-03-08T15:17:22;10.70;99.90
21662;DHT22;10992;48.170;8.596;2024-03-08T15:19:49;10.50;99.90
21662;DHT22;10992;48.170;8.596;2024-03-08T15:22:17;10.80;99.90
21662;DHT22;10992;48.170;8.596;2024-03-08T15:24:45;10.40;99.90
21662;DHT22;10992;48.170;8.596;2024-03-08T15:27:12;10.30;99.90
21662;DHT22;10992;48.170;8.596;2024-03-08T15:29:39;10.20;99.90
21662;DHT22;10992;48.170;8.596;2024-03-08T15:32:06;10.60;99.90
21662;DHT22;10992;48.170;8.596;2024-03-08T15:34:36;10.20;99.90
21662;DHT22;10992;48.170;8.596;2024-03-08T15:37:05;9.90;99.90
21662;DHT22;10992;48.170;8.596;2024-03-08T15:39:33;10.00;99.90
21662;DHT22;10992;48.170;8.596;2024-03-08T15:42:01;9.70;99.90
21662;DHT22;10992;48.170;8.596;2024-03-08T15:44:28;9.50;99.90
21662;DHT22;10992;48.170;8.596;2024-03-08T15:46:55;9.20;99.90
21662;DHT22;10992;48.170;8.596;2024-03-08T15:49:23;9.00;99.90
21662;DHT22;10992;48.170;8.596;2024-03-08T15:51:53;8.80;99.90
21662;DHT22;10992;48.170;8.596;2024-03-08T15:54:20;8.60;99.90